Time;durP1;ratioP1;P1;durP2;ratioP2;P2;SDS_P1;SDS_P2;PMS_P1;PMS_P2;Temp;Humidity;BMP_temperature;BMP_pressure;BME280_temperature;BME280_humidity;BME280_pressure;Samples;Min_cycle;Max_cycle;Signal;HPM_P1;HPM_P2
2023/05/20 00:00:49;;;;;;;16.73;7.83;;;14.10;99.90;;;;;;5093539;28;20276;-85
2023/05/20 00:03:36;;;;;;;11.17;7.17;;;14.10;99.90;;;;;;5090422;28;20237;-78
2023/05/20 00:06:24;;;;;;;14.77;7.70;;;14.10;99.90;;;;;;5094137;28;20205;-81
2023/05/20 00:09:11;;;;;;;12.67;7.40;;;14.10;99.90;;;;;;5090221;28;20235;-82
2023/05/20 00:11:58;;;;;;;15.97;7.57;;;14.00;99.90;;;;;;5091502;28;20299;-84
2023/05/20 00:14:46;;;;;;;11.47;7.13;;;14.10;99.90;;;;;;5089976;28;20209;-84
2023/05/20 00:17:33;;;;;;;11.77;7.60;;;14.00;99.90;;;;;;5090501;28;20280;-80
2023/05/20 00:20:20;;;;;;;11.40;7.10;;;14.00;99.90;;;;;;5092365;28;20235;-84
2023/05/20 00:23:09;;;;;;;14.40;7.57;;;14.10;99.90;;;;;;5089882;28;20422;-79
2023/05/20 00:25:56;;;;;;;13.17;7.40;;;14.10;99.90;;;;;;5089306;28;20205;-81
2023/05/20 00:28:47;;;;;;;13.57;7.10;;;14.00;99.90;;;;;;5090005;28;20195;-82
2023/05/20 00:31:34;;;;;;;13.53;7.20;;;14.00;99.90;;;;;;5090142;28;20290;-79
2023/05/20 00:34:22;;;;;;;11.83;7.07;;;14.00;99.90;;;;;;5077540;28;20636;-83
2023/05/20 00:37:15;;;;;;;11.23;6.90;;;13.90;99.90;;;;;;5069807;28;20198;-83
2023/05/20 00:40:02;;;;;;;15.03;7.37;;;13.90;99.90;;;;;;5055985;28;20196;-81
2023/05/20 00:42:52;;;;;;;12.83;7.47;;;13.90;99.90;;;;;;5071326;28;20218;-83
2023/05/20 00:45:40;;;;;;;12.93;7.10;;;13.80;99.90;;;;;;5069841;28;20285;-72
2023/05/20 00:48:46;;;;;;;14.47;7.27;;;13.70;99.90;;;;;;5068901;28;20241;-81
2023/05/20 00:51:37;;;;;;;12.60;7.50;;;13.70;99.90;;;;;;5070723;28;20204;-81
2023/05/20 00:54:24;;;;;;;12.40;6.97;;;13.60;99.90;;;;;;5054683;28;20202;-80
2023/05/20 00:57:12;;;;;;;12.07;6.70;;;13.70;99.90;;;;;;5069491;28;20211;-84
2023/05/20 01:00:00;;;;;;;11.20;7.10;;;13.60;99.90;;;;;;5056726;28;20209;-84
2023/05/20 01:02:50;;;;;;;12.63;7.03;;;13.60;99.90;;;;;;5072971;28;20301;-77
2023/05/20 01:05:38;;;;;;;12.97;7.37;;;13.70;99.90;;;;;;5072001;28;20818;-81
2023/05/20 01:08:30;;;;;;;12.03;7.30;;;13.60;99.90;;;;;;5059300;28;20198;-75
2023/05/20 01:11:26;;;;;;;15.30;8.10;;;13.70;99.90;;;;;;5076085;28;20213;-83
2023/05/20 01:14:16;;;;;;;13.50;7.07;;;13.60;99.90;;;;;;5080657;28;20283;-83
2023/05/20 01:17:09;;;;;;;16.20;7.70;;;13.60;99.90;;;;;;5061140;28;20726;-87
2023/05/20 01:19:58;;;;;;;12.40;7.07;;;13.60;99.90;;;;;;5074603;28;20193;-83
2023/05/20 01:22:51;;;;;;;10.80;7.13;;;13.60;99.90;;;;;;5072002;28;20559;-81
2023/05/20 01:25:41;;;;;;;14.37;6.73;;;13.60;99.90;;;;;;5068792;28;20549;-80
2023/05/20 01:28:29;;;;;;;12.77;7.37;;;13.60;99.90;;;;;;5066814;28;20223;-75
2023/05/20 01:31:22;;;;;;;11.83;7.07;;;13.50;99.90;;;;;;5076019;28;20204;-72
2023/05/20 01:34:10;;;;;;;12.27;7.00;;;13.50;99.90;;;;;;5076890;28;20194;-71
2023/05/20 01:36:57;;;;;;;12.30;6.73;;;13.50;99.90;;;;;;5077396;28;20197;-72
2023/05/20 01:39:46;;;;;;;13.73;6.50;;;13.50;99.90;;;;;;5092226;28;20193;-71
2023/05/20 01:42:35;;;;;;;10.27;6.53;;;13.50;99.90;;;;;;5087438;28;20211;-72
2023/05/20 01:45:24;;;;;;;12.03;6.87;;;13.50;99.90;;;;;;5085690;28;20202;-70
2023/05/20 01:48:11;;;;;;;10.67;6.60;;;13.50;99.90;;;;;;5083916;28;20652;-70
2023/05/20 01:50:59;;;;;;;11.97;6.67;;;13.50;99.90;;;;;;5090796;28;20206;-71
2023/05/20 01:53:46;;;;;;;9.27;6.20;;;13.50;99.90;;;;;;5085265;28;20234;-71
2023/05/20 01:56:33;;;;;;;11.00;6.53;;;13.50;99.90;;;;;;5090007;28;20351;-73
2023/05/20 01:59:20;;;;;;;10.77;6.13;;;13.50;99.90;;;;;;5083314;28;20194;-84
2023/05/20 02:02:09;;;;;;;11.03;6.47;;;13.50;99.90;;;;;;5087977;28;20568;-72
2023/05/20 02:04:57;;;;;;;12.20;6.27;;;13.50;99.90;;;;;;5089973;28;20225;-78
2023/05/20 02:07:44;;;;;;;12.13;6.13;;;13.50;99.90;;;;;;5091455;28;20275;-80
2023/05/20 02:10:32;;;;;;;10.07;6.20;;;13.50;99.90;;;;;;5090603;28;20221;-74
2023/05/20 02:13:19;;;;;;;12.93;6.60;;;13.50;99.90;;;;;;5090846;28;20209;-83
2023/05/20 02:16:06;;;;;;;9.40;5.63;;;13.40;99.90;;;;;;5079970;28;20639;-78
2023/05/20 02:18:53;;;;;;;10.80;6.10;;;13.50;99.90;;;;;;5071071;28;20252;-76
2023/05/20 02:21:41;;;;;;;10.93;6.23;;;13.50;99.90;;;;;;5071932;28;20297;-77
2023/05/20 02:24:28;;;;;;;10.37;6.37;;;13.50;99.90;;;;;;5071148;28;20226;-73
2023/05/20 02:27:15;;;;;;;10.47;6.00;;;13.50;99.90;;;;;;5095094;28;20193;-73
2023/05/20 02:30:03;;;;;;;12.33;6.10;;;13.50;99.90;;;;;;5095921;28;20566;-77
2023/05/20 02:32:50;;;;;;;9.90;5.60;;;13.50;99.90;;;;;;5114215;28;20613;-76
2023/05/20 02:35:38;;;;;;;9.97;5.50;;;13.50;99.90;;;;;;5111289;28;20284;-79
2023/05/20 02:38:25;;;;;;;10.53;6.00;;;13.50;99.90;;;;;;5111201;28;20193;-71
2023/05/20 02:41:13;;;;;;;9.70;5.60;;;13.50;99.90;;;;;;5111973;28;20208;-74
2023/05/20 02:44:00;;;;;;;10.40;5.63;;;13.50;99.90;;;;;;5096215;28;20217;-75
2023/05/20 02:46:47;;;;;;;8.43;5.27;;;13.50;99.90;;;;;;5093008;28;20219;-74
2023/05/20 02:49:34;;;;;;;9.00;5.27;;;13.40;99.90;;;;;;5090133;28;20189;-73
2023/05/20 02:52:22;;;;;;;9.73;5.13;;;13.50;99.90;;;;;;5090702;28;20203;-72
2023/05/20 02:55:09;;;;;;;9.90;5.60;;;13.50;99.90;;;;;;5076512;28;20656;-72
2023/05/20 02:57:56;;;;;;;9.73;5.40;;;13.50;99.90;;;;;;5064891;28;20719;-70
2023/05/20 03:00:43;;;;;;;8.00;5.13;;;13.50;99.90;;;;;;5074419;28;20198;-80
2023/05/20 03:03:31;;;;;;;9.03;5.43;;;13.50;99.90;;;;;;5070836;28;20217;-76
2023/05/20 03:06:18;;;;;;;9.93;5.33;;;13.50;99.90;;;;;;5070926;28;20206;-75
2023/05/20 03:09:05;;;;;;;10.53;5.57;;;13.50;99.90;;;;;;5087132;28;20635;-86
2023/05/20 03:11:52;;;;;;;10.23;5.80;;;13.50;99.90;;;;;;5111392;28;20200;-74
2023/05/20 03:14:39;;;;;;;11.50;5.20;;;13.50;99.90;;;;;;5095867;28;20758;-84
2023/05/20 03:17:27;;;;;;;7.47;5.30;;;13.50;99.90;;;;;;5090372;28;20356;-70
2023/05/20 03:20:15;;;;;;;7.20;4.97;;;13.40;99.90;;;;;;5090057;28;20673;-71
2023/05/20 03:23:03;;;;;;;7.93;5.47;;;13.40;99.90;;;;;;5088882;28;20301;-71
2023/05/20 03:25:50;;;;;;;9.67;4.90;;;13.50;99.90;;;;;;5075314;28;20193;-70
2023/05/20 03:28:38;;;;;;;10.07;5.20;;;13.40;99.90;;;;;;5090066;28;20194;-73
2023/05/20 03:31:25;;;;;;;9.53;5.60;;;13.40;99.90;;;;;;5090053;28;20251;-71
2023/05/20 03:34:12;;;;;;;8.17;4.93;;;13.40;99.90;;;;;;5093221;28;20566;-74
2023/05/20 03:37:00;;;;;;;9.40;5.20;;;13.50;99.90;;;;;;5092031;28;20193;-81
2023/05/20 03:39:47;;;;;;;8.93;5.17;;;13.50;99.90;;;;;;5091602;28;20205;-78
2023/05/20 03:42:34;;;;;;;8.90;5.17;;;13.50;99.90;;;;;;5091637;28;20201;-80
2023/05/20 03:45:22;;;;;;;9.27;5.20;;;13.60;99.90;;;;;;5089969;28;20212;-86
2023/05/20 03:48:09;;;;;;;7.23;4.87;;;13.60;99.90;;;;;;5095483;28;20245;-75
2023/05/20 03:50:56;;;;;;;8.63;4.97;;;13.60;99.90;;;;;;5082787;28;20218;-69
2023/05/20 03:53:43;;;;;;;8.67;5.23;;;13.60;99.90;;;;;;5093411;28;20613;-75
2023/05/20 03:56:31;;;;;;;8.73;5.30;;;13.70;99.90;;;;;;5089325;28;20299;-72
2023/05/20 03:59:18;;;;;;;9.53;5.13;;;13.70;99.90;;;;;;5089553;28;20201;-69
2023/05/20 04:02:05;;;;;;;9.47;5.33;;;13.80;99.90;;;;;;5089309;28;20670;-84
2023/05/20 04:04:56;;;;;;;10.00;4.97;;;13.90;99.90;;;;;;5089221;28;20228;-82
2023/05/20 04:07:43;;;;;;;11.83;5.30;;;13.90;99.90;;;;;;5080963;28;20204;-80
2023/05/20 04:10:32;;;;;;;9.30;5.33;;;14.00;99.90;;;;;;5090636;28;20650;-71
2023/05/20 04:13:19;;;;;;;6.70;4.70;;;14.10;99.90;;;;;;5089402;28;20212;-71
2023/05/20 04:16:06;;;;;;;10.50;5.20;;;14.10;99.90;;;;;;5089288;28;20197;-69
2023/05/20 04:18:54;;;;;;;7.50;4.97;;;14.20;99.90;;;;;;5074403;28;20576;-70
2023/05/20 04:21:42;;;;;;;9.10;4.57;;;14.20;99.90;;;;;;5089280;28;20322;-69
2023/05/20 04:24:30;;;;;;;10.23;4.97;;;14.30;99.90;;;;;;5088866;28;20228;-73
2023/05/20 04:27:17;;;;;;;7.27;4.70;;;14.40;99.90;;;;;;5089497;28;20613;-69
2023/05/20 04:30:05;;;;;;;6.50;4.70;;;14.40;99.90;;;;;;5089828;28;20229;-80
2023/05/20 04:32:53;;;;;;;9.93;4.63;;;14.50;99.90;;;;;;5088486;28;20197;-75
2023/05/20 04:35:41;;;;;;;7.70;4.73;;;14.60;99.90;;;;;;5090830;28;20252;-69
2023/05/20 04:38:29;;;;;;;7.07;4.40;;;14.70;99.90;;;;;;5093435;28;20233;-69
2023/05/20 04:41:16;;;;;;;7.07;4.10;;;14.70;99.90;;;;;;5093830;28;20215;-72
2023/05/20 04:44:05;;;;;;;6.17;4.10;;;14.70;99.90;;;;;;5093725;28;20262;-68
2023/05/20 04:46:52;;;;;;;6.37;4.50;;;14.80;99.90;;;;;;5096222;28;20227;-69
2023/05/20 04:49:39;;;;;;;6.10;4.30;;;14.90;99.90;;;;;;5092975;28;20193;-70
2023/05/20 04:52:27;;;;;;;7.23;4.03;;;14.90;99.90;;;;;;5093422;28;20207;-72
2023/05/20 04:55:14;;;;;;;8.03;4.30;;;15.00;99.90;;;;;;5092667;28;20573;-70
2023/05/20 04:58:02;;;;;;;8.53;4.37;;;15.10;99.90;;;;;;5093361;28;20228;-72
2023/05/20 05:00:51;;;;;;;9.83;4.53;;;15.20;99.90;;;;;;5092295;28;20201;-71
2023/05/20 05:03:38;;;;;;;6.10;4.10;;;15.30;99.90;;;;;;5091863;28;20202;-69
2023/05/20 05:06:25;;;;;;;6.93;4.23;;;15.30;99.90;;;;;;5093365;28;20197;-80
2023/05/20 05:09:12;;;;;;;8.37;4.07;;;15.40;99.90;;;;;;5092401;28;20254;-70
2023/05/20 05:12:00;;;;;;;7.30;4.30;;;15.40;99.90;;;;;;5093481;28;20196;-72
2023/05/20 05:14:47;;;;;;;7.33;3.97;;;15.50;99.90;;;;;;5092816;28;20200;-75
2023/05/20 05:17:34;;;;;;;6.97;3.80;;;15.60;99.90;;;;;;5093657;28;20193;-73
2023/05/20 05:20:21;;;;;;;8.03;4.00;;;15.80;99.90;;;;;;5093202;28;20215;-75
2023/05/20 05:23:09;;;;;;;5.57;3.83;;;15.90;99.90;;;;;;5092490;28;20208;-83
2023/05/20 05:25:56;;;;;;;6.93;3.90;;;16.00;99.90;;;;;;5091749;28;20201;-75
2023/05/20 05:28:44;;;;;;;7.00;3.87;;;16.10;99.90;;;;;;5077508;28;20224;-81
2023/05/20 05:31:31;;;;;;;7.17;3.90;;;16.10;99.90;;;;;;5093071;28;20201;-74
2023/05/20 05:34:18;;;;;;;6.47;3.60;;;16.20;99.90;;;;;;5091431;28;20277;-82
2023/05/20 05:37:05;;;;;;;5.90;3.33;;;16.30;99.90;;;;;;5092529;28;20197;-78
2023/05/20 05:39:52;;;;;;;5.73;3.33;;;16.40;99.90;;;;;;5091805;28;20201;-71
2023/05/20 05:42:39;;;;;;;5.70;3.63;;;16.40;99.90;;;;;;5091813;28;20614;-74
2023/05/20 05:45:27;;;;;;;7.27;3.40;;;16.50;99.90;;;;;;5091407;28;20722;-79
2023/05/20 05:48:14;;;;;;;6.07;3.67;;;16.70;99.90;;;;;;5092105;28;20690;-71
2023/05/20 05:51:01;;;;;;;7.27;4.13;;;16.80;99.90;;;;;;5091811;28;20816;-74
2023/05/20 05:53:48;;;;;;;6.00;3.63;;;17.00;99.90;;;;;;5093091;28;20785;-86
2023/05/20 05:56:36;;;;;;;7.00;3.90;;;17.10;99.90;;;;;;5102184;28;20289;-81
2023/05/20 05:59:23;;;;;;;7.63;3.80;;;17.20;99.90;;;;;;5095653;28;20194;-88
2023/05/20 06:02:10;;;;;;;8.10;3.60;;;17.30;99.90;;;;;;5088385;28;20209;-86
2023/05/20 06:04:57;;;;;;;7.80;3.40;;;17.40;99.90;;;;;;5079865;28;20220;-90
2023/05/20 06:07:44;;;;;;;8.20;3.53;;;17.60;99.90;;;;;;5086833;28;20209;-85
2023/05/20 06:10:32;;;;;;;5.53;3.80;;;17.50;99.90;;;;;;5077537;28;20198;-88
2023/05/20 06:13:19;;;;;;;6.03;3.80;;;17.50;99.90;;;;;;5093024;28;20261;-80
2023/05/20 06:16:06;;;;;;;7.00;3.90;;;17.50;99.90;;;;;;5081740;28;20240;-84
2023/05/20 06:18:56;;;;;;;7.13;3.87;;;17.70;99.90;;;;;;5087872;28;20280;-88
2023/05/20 06:21:46;;;;;;;8.10;3.60;;;17.80;99.90;;;;;;5086722;28;20170;-87
2023/05/20 06:24:33;;;;;;;8.93;3.90;;;17.80;99.90;;;;;;5081734;28;20224;-76
2023/05/20 06:27:21;;;;;;;6.70;3.60;;;17.90;99.90;;;;;;5073807;28;20198;-86
2023/05/20 06:30:08;;;;;;;9.07;3.80;;;17.90;99.90;;;;;;5073655;28;20277;-91
2023/05/20 06:32:55;;;;;;;5.83;3.80;;;18.10;99.90;;;;;;5045564;28;20271;-91
2023/05/20 06:35:43;;;;;;;7.23;3.83;;;18.20;99.90;;;;;;5064632;28;20235;-86
2023/05/20 06:38:30;;;;;;;6.60;3.93;;;18.20;99.90;;;;;;5053161;28;20199;-90
2023/05/20 06:41:17;;;;;;;5.63;3.60;;;18.20;99.90;;;;;;5052759;28;20237;-85
2023/05/20 06:44:06;;;;;;;5.90;3.97;;;18.30;99.90;;;;;;5037676;28;20771;-80
2023/05/20 06:46:53;;;;;;;5.53;3.57;;;18.40;99.90;;;;;;5050213;28;20203;-82
2023/05/20 06:49:42;;;;;;;5.30;3.70;;;18.40;99.90;;;;;;5051548;28;20209;-86
2023/05/20 06:52:33;;;;;;;5.40;3.50;;;18.50;99.90;;;;;;5052869;28;20199;-86
2023/05/20 06:55:20;;;;;;;6.07;3.50;;;18.40;99.90;;;;;;5052558;28;20222;-82
2023/05/20 06:58:07;;;;;;;5.60;3.83;;;18.50;99.90;;;;;;5035649;28;20208;-76
2023/05/20 07:00:54;;;;;;;9.43;3.87;;;18.60;99.90;;;;;;5051258;28;20280;-84
2023/05/20 07:03:43;;;;;;;6.33;3.20;;;18.50;99.90;;;;;;5052175;28;20198;-86
2023/05/20 07:06:30;;;;;;;5.90;3.77;;;18.50;99.90;;;;;;5052458;28;20296;-83
2023/05/20 07:09:17;;;;;;;6.33;3.80;;;18.40;99.90;;;;;;5056526;28;20255;-87
2023/05/20 07:12:05;;;;;;;5.37;3.50;;;18.50;99.90;;;;;;5055046;28;20241;-88
2023/05/20 07:14:52;;;;;;;5.63;3.60;;;18.60;99.90;;;;;;5053657;28;20202;-83
2023/05/20 07:17:39;;;;;;;4.83;3.40;;;18.80;99.90;;;;;;5053226;28;20233;-84
2023/05/20 07:20:27;;;;;;;5.63;3.80;;;18.90;99.90;;;;;;5053016;28;20195;-86
2023/05/20 07:23:14;;;;;;;6.40;3.47;;;18.90;99.90;;;;;;5053156;28;20289;-82
2023/05/20 07:26:02;;;;;;;7.53;3.70;;;19.00;99.90;;;;;;5052262;28;20237;-84
2023/05/20 07:28:50;;;;;;;7.03;3.50;;;19.20;99.90;;;;;;5034699;28;20199;-78
2023/05/20 07:31:37;;;;;;;5.03;3.70;;;19.40;99.90;;;;;;5036364;28;20207;-78
2023/05/20 07:34:24;;;;;;;6.47;4.00;;;19.20;99.90;;;;;;5049997;28;20202;-83
2023/05/20 07:37:12;;;;;;;5.80;3.70;;;19.20;99.90;;;;;;5071572;28;20214;-82
2023/05/20 07:40:01;;;;;;;6.40;3.87;;;19.30;99.90;;;;;;5070445;28;20206;-81
2023/05/20 07:42:48;;;;;;;9.10;3.83;;;19.50;99.90;;;;;;5071275;28;20233;-79
2023/05/20 07:45:36;;;;;;;5.13;3.53;;;19.60;99.90;;;;;;5071060;28;20225;-79
2023/05/20 07:48:24;;;;;;;4.27;3.30;;;19.80;99.90;;;;;;5070115;28;20683;-79
2023/05/20 07:51:11;;;;;;;8.30;3.47;;;19.90;99.90;;;;;;5071141;28;20235;-79
2023/05/20 07:53:58;;;;;;;5.03;3.70;;;20.10;99.90;;;;;;5070471;28;20560;-81
2023/05/20 07:56:46;;;;;;;4.33;3.43;;;20.10;99.90;;;;;;5069006;28;20245;-78
2023/05/20 07:59:33;;;;;;;6.43;3.43;;;20.20;99.90;;;;;;5070331;28;20650;-78
2023/05/20 08:02:20;;;;;;;5.57;3.47;;;20.30;99.90;;;;;;5070342;28;20202;-77
2023/05/20 08:05:08;;;;;;;8.17;3.50;;;20.30;99.90;;;;;;5081504;28;20217;-79
2023/05/20 08:07:55;;;;;;;6.80;3.80;;;20.40;99.90;;;;;;5070300;28;20647;-79
2023/05/20 08:10:42;;;;;;;7.47;3.30;;;20.50;99.90;;;;;;5075303;28;20198;-79
2023/05/20 08:13:30;;;;;;;7.47;3.90;;;20.60;99.90;;;;;;5073651;28;20197;-79
2023/05/20 08:16:20;;;;;;;7.27;3.50;;;21.00;99.90;;;;;;5077299;28;20208;-78
2023/05/20 08:19:08;;;;;;;15.40;4.20;;;21.90;99.90;;;;;;5073745;28;20198;-79
2023/05/20 08:21:55;;;;;;;5.70;3.90;;;22.60;99.90;;;;;;5074399;28;20574;-80
2023/05/20 08:24:42;;;;;;;8.80;4.30;;;23.30;99.90;;;;;;5074604;28;20283;-80
2023/05/20 08:27:29;;;;;;;5.53;3.92;;;23.80;99.90;;;;;;5083550;28;20297;-81
2023/05/20 08:30:17;;;;;;;7.20;3.75;;;24.50;99.90;;;;;;5093868;28;20193;-81
2023/05/20 08:33:04;;;;;;;9.15;4.45;;;24.90;99.90;;;;;;5087061;28;20331;-81
2023/05/20 08:35:52;;;;;;;5.50;3.70;;;25.20;99.90;;;;;;5092395;28;20320;-81
2023/05/20 08:38:39;;;;;;;8.00;3.80;;;25.80;99.90;;;;;;5094279;28;20685;-79
2023/05/20 08:41:26;;;;;;;5.55;3.78;;;26.00;99.90;;;;;;5095743;28;20204;-79
2023/05/20 08:44:16;;;;;;;6.38;3.80;;;26.40;99.90;;;;;;5092851;28;20194;-79
2023/05/20 08:47:05;;;;;;;5.60;3.42;;;26.70;99.90;;;;;;5091598;28;20199;-79
2023/05/20 08:49:52;;;;;;;5.63;3.60;;;26.80;99.90;;;;;;5077062;28;20201;-80
2023/05/20 08:52:44;;;;;;;5.03;3.67;;;26.90;99.90;;;;;;5072993;28;20198;-78
2023/05/20 08:55:42;;;;;;;7.05;3.60;;;27.10;99.90;;;;;;5091816;28;20229;-79
2023/05/20 08:58:31;;;;;;;7.03;3.90;;;27.20;99.90;;;;;;5089986;28;20201;-79
2023/05/20 09:01:23;;;;;;;5.70;3.63;;;27.40;99.90;;;;;;5092636;28;20613;-80
2023/05/20 09:04:11;;;;;;;4.55;3.97;;;27.30;99.90;;;;;;5079179;28;20193;-79
2023/05/20 09:07:02;;;;;;;5.75;3.60;;;27.50;99.90;;;;;;5088037;28;20569;-82
2023/05/20 09:09:49;;;;;;;8.35;3.55;;;27.50;99.90;;;;;;5102944;28;20460;-81
2023/05/20 09:12:40;;;;;;;4.57;3.53;;;27.50;99.90;;;;;;5094069;28;20197;-83
2023/05/20 09:15:29;;;;;;;4.35;3.88;;;27.60;99.90;;;;;;5094215;28;20470;-84
2023/05/20 09:18:16;;;;;;;6.22;3.90;;;27.70;99.90;;;;;;5098149;28;20190;-82
2023/05/20 09:21:05;;;;;;;4.63;4.10;;;27.60;99.90;;;;;;5095990;28;20211;-85
2023/05/20 09:23:56;;;;;;;6.82;4.03;;;27.60;99.90;;;;;;5101202;28;20201;-82
2023/05/20 09:26:43;;;;;;;8.43;4.10;;;27.60;99.90;;;;;;5094840;28;20350;-80
2023/05/20 09:29:32;;;;;;;7.70;4.38;;;27.60;99.90;;;;;;5093569;28;20746;-82
2023/05/20 09:32:23;;;;;;;7.38;4.38;;;27.80;99.90;;;;;;5100228;28;20862;-80
2023/05/20 09:35:14;;;;;;;16.55;5.47;;;27.70;99.90;;;;;;5102947;28;20233;-80
2023/05/20 09:38:03;;;;;;;10.40;5.55;;;27.70;99.90;;;;;;5093604;28;20205;-79
2023/05/20 09:40:51;;;;;;;7.32;4.47;;;27.50;99.90;;;;;;5097082;28;20193;-76
2023/05/20 09:43:42;;;;;;;9.02;4.80;;;27.70;99.90;;;;;;5100086;28;20197;-85
2023/05/20 09:46:38;;;;;;;8.15;4.70;;;28.00;99.90;;;;;;5092870;28;20300;-79
2023/05/20 09:49:29;;;;;;;9.32;4.82;;;28.20;99.90;;;;;;5078137;28;20236;-85
2023/05/20 09:52:17;;;;;;;8.90;4.72;;;28.20;99.80;;;;;;5091867;28;20201;-81
2023/05/20 09:55:11;;;;;;;6.65;4.85;;;28.00;99.30;;;;;;5091142;28;20252;-79
2023/05/20 09:58:01;;;;;;;7.75;5.25;;;27.70;99.90;;;;;;5091213;28;20280;-80
2023/05/20 10:00:49;;;;;;;8.52;4.95;;;27.20;99.90;;;;;;5084687;28;20209;-82
2023/05/20 10:03:37;;;;;;;5.68;4.65;;;26.70;99.90;;;;;;5091830;28;20280;-80
2023/05/20 10:07:05;;;;;;;8.60;5.25;;;26.60;99.90;;;;;;5091507;28;20228;-79
2023/05/20 10:10:25;;;;;;;7.28;5.20;;;26.20;99.90;;;;;;5092286;28;20677;-79
2023/05/20 10:13:49;;;;;;;8.00;5.25;;;26.00;99.90;;;;;;5070920;28;20206;-78
2023/05/20 10:16:54;;;;;;;9.43;5.15;;;26.10;99.90;;;;;;5091085;28;20517;-84
2023/05/20 10:19:42;;;;;;;8.18;5.75;;;26.60;99.90;;;;;;5078074;28;20197;-82
2023/05/20 10:22:30;;;;;;;8.32;5.03;;;27.40;99.90;;;;;;5092008;28;20213;-83
2023/05/20 10:25:27;;;;;;;8.00;4.68;;;27.50;99.90;;;;;;5091122;28;20267;-82
2023/05/20 10:28:26;;;;;;;8.90;5.80;;;27.40;99.90;;;;;;5092810;28;20198;-81
2023/05/20 10:31:33;;;;;;;7.53;5.25;;;27.50;99.90;;;;;;5091508;28;20201;-80
2023/05/20 10:34:24;;;;;;;6.70;5.05;;;27.80;99.50;;;;;;5076248;28;20198;-81
2023/05/20 10:37:22;;;;;;;6.25;5.15;;;27.60;99.40;;;;;;5069493;28;20202;-80
2023/05/20 10:40:11;;;;;;;10.75;5.05;;;28.10;99.60;;;;;;5066403;28;20295;-80
2023/05/20 10:43:12;;;;;;;7.53;5.07;;;28.40;98.00;;;;;;5055943;28;20198;-80
2023/05/20 10:45:59;;;;;;;7.45;5.20;;;28.70;97.20;;;;;;5072155;28;20253;-81
2023/05/20 10:48:51;;;;;;;5.72;4.85;;;28.70;97.20;;;;;;5071533;28;20296;-75
2023/05/20 10:51:40;;;;;;;5.93;4.72;;;28.70;96.60;;;;;;5071145;28;20332;-78
2023/05/20 10:54:28;;;;;;;5.38;4.70;;;29.30;96.40;;;;;;5070302;28;20201;-82
2023/05/20 10:57:19;;;;;;;6.60;5.30;;;29.50;96.70;;;;;;5071410;28;20194;-80
2023/05/20 11:00:15;;;;;;;12.55;5.10;;;29.40;94.80;;;;;;5070435;28;20186;-82
2023/05/20 11:03:06;;;;;;;7.25;5.18;;;29.40;94.00;;;;;;5071025;28;20623;-73
2023/05/20 11:05:56;;;;;;;6.43;5.18;;;29.30;93.20;;;;;;5069766;28;20222;-80
2023/05/20 11:08:44;;;;;;;6.32;4.90;;;28.70;92.80;;;;;;5071722;28;20264;-78
2023/05/20 11:11:32;;;;;;;6.80;5.03;;;28.70;94.00;;;;;;5069324;28;20304;-80
2023/05/20 11:14:20;;;;;;;9.45;5.20;;;28.90;93.40;;;;;;5070168;28;20837;-80
2023/05/20 11:17:08;;;;;;;5.68;5.03;;;29.30;92.70;;;;;;5055542;28;20773;-85
2023/05/20 11:19:55;;;;;;;5.97;4.93;;;29.60;92.40;;;;;;5073479;28;20623;-83
2023/05/20 11:22:44;;;;;;;8.90;5.18;;;29.80;91.60;;;;;;5073168;28;20190;-80
2023/05/20 11:25:32;;;;;;;7.72;4.90;;;30.00;91.30;;;;;;5071702;28;20237;-76
2023/05/20 11:28:23;;;;;;;6.68;5.22;;;30.10;91.70;;;;;;5068652;28;20288;-79
2023/05/20 11:31:10;;;;;;;6.63;5.20;;;30.60;90.20;;;;;;5070380;28;20198;-76
2023/05/20 11:34:01;;;;;;;8.82;5.22;;;30.70;87.50;;;;;;5069836;28;20236;-75
2023/05/20 11:36:55;;;;;;;7.20;5.40;;;30.50;89.10;;;;;;5082088;28;20694;-75
2023/05/20 11:39:43;;;;;;;6.00;4.82;;;30.40;90.00;;;;;;5090728;28;20225;-75
2023/05/20 11:42:31;;;;;;;7.93;5.28;;;30.90;88.40;;;;;;5089680;28;20278;-79
2023/05/20 11:45:18;;;;;;;11.50;5.40;;;31.40;86.00;;;;;;5090192;28;20301;-82
2023/05/20 11:48:06;;;;;;;8.88;5.40;;;31.30;84.30;;;;;;5089494;28;20190;-86
2023/05/20 11:50:55;;;;;;;7.45;5.40;;;31.70;84.30;;;;;;5090485;28;20197;-79
2023/05/20 11:53:42;;;;;;;6.28;5.07;;;32.20;81.20;;;;;;5089563;28;20275;-82
2023/05/20 11:56:30;;;;;;;9.68;5.18;;;31.90;80.80;;;;;;5089041;28;20219;-82
2023/05/20 11:59:17;;;;;;;5.88;5.18;;;31.40;79.90;;;;;;5089720;28;20868;-82
2023/05/20 12:02:05;;;;;;;7.32;5.28;;;30.90;83.00;;;;;;5091376;28;20201;-80
2023/05/20 12:04:52;;;;;;;10.85;5.20;;;30.90;84.70;;;;;;5089886;28;20690;-85
2023/05/20 12:07:40;;;;;;;9.85;5.43;;;30.80;85.40;;;;;;5090472;28;20538;-83
2023/05/20 12:10:27;;;;;;;9.25;5.50;;;30.90;84.00;;;;;;5093647;28;20205;-85
2023/05/20 12:13:15;;;;;;;7.38;5.07;;;31.20;81.50;;;;;;5092494;28;20247;-83
2023/05/20 12:16:04;;;;;;;8.85;5.40;;;31.60;80.20;;;;;;5096916;28;20196;-86
2023/05/20 12:18:51;;;;;;;6.78;5.13;;;31.70;80.00;;;;;;5092560;28;20284;-83
2023/05/20 12:21:39;;;;;;;9.10;5.25;;;32.10;79.10;;;;;;5092294;28;20201;-82
2023/05/20 12:24:26;;;;;;;6.25;5.03;;;32.20;77.30;;;;;;5091057;28;20242;-84
2023/05/20 12:27:13;;;;;;;7.68;5.22;;;32.40;76.60;;;;;;5090955;28;20262;-84
2023/05/20 12:30:01;;;;;;;6.18;5.13;;;32.60;77.50;;;;;;5091973;28;20287;-84
2023/05/20 12:32:50;;;;;;;7.05;5.13;;;32.70;76.30;;;;;;5093502;28;20685;-86
2023/05/20 12:35:38;;;;;;;8.70;5.20;;;32.70;75.10;;;;;;5093383;28;20229;-83
2023/05/20 12:38:26;;;;;;;9.65;5.13;;;32.50;74.80;;;;;;5094112;28;20211;-80
2023/05/20 12:41:14;;;;;;;6.75;4.93;;;32.00;75.00;;;;;;5090565;28;20202;-84
2023/05/20 12:44:01;;;;;;;7.45;5.60;;;31.40;75.90;;;;;;5093788;28;20229;-84
2023/05/20 12:46:48;;;;;;;13.05;6.18;;;31.00;78.10;;;;;;5090449;28;20739;-83
2023/05/20 12:49:36;;;;;;;9.40;5.55;;;31.40;77.80;;;;;;5090251;28;20189;-79
2023/05/20 12:52:23;;;;;;;7.47;5.30;;;31.60;75.60;;;;;;5090045;28;20194;-81
2023/05/20 12:55:12;;;;;;;7.10;5.68;;;31.80;75.10;;;;;;5090797;28;20253;-80
2023/05/20 12:57:59;;;;;;;7.68;5.80;;;32.20;74.00;;;;;;5094804;28;20202;-81
2023/05/20 13:00:47;;;;;;;5.57;5.00;;;32.10;75.70;;;;;;5102557;28;20203;-88
2023/05/20 13:03:34;;;;;;;7.03;5.10;;;32.00;75.70;;;;;;5096437;28;20240;-89
2023/05/20 13:06:21;;;;;;;8.35;5.43;;;31.40;76.30;;;;;;5094803;28;20228;-92
2023/05/20 13:09:18;;;;;;;8.77;5.70;;;30.90;77.40;;;;;;5109608;28;20193;-85
2023/05/20 13:12:06;;;;;;;7.50;5.85;;;30.00;79.60;;;;;;5078636;28;20281;-84
2023/05/20 13:14:53;;;;;;;8.27;5.60;;;29.50;81.80;;;;;;5093805;28;20231;-79
2023/05/20 13:17:43;;;;;;;7.75;5.65;;;29.10;83.20;;;;;;5094843;28;20189;-77
2023/05/20 13:20:31;;;;;;;7.22;6.05;;;28.70;83.90;;;;;;5093510;28;20205;-82
2023/05/20 13:23:20;;;;;;;8.60;6.28;;;28.60;84.00;;;;;;5093790;28;20197;-77
2023/05/20 13:26:08;;;;;;;8.20;5.78;;;29.00;83.80;;;;;;5092613;28;20213;-77
2023/05/20 13:28:56;;;;;;;9.70;5.63;;;29.50;83.00;;;;;;5091783;28;20190;-76
2023/05/20 13:31:43;;;;;;;7.72;5.60;;;29.60;81.40;;;;;;5092485;28;20197;-80
2023/05/20 13:34:30;;;;;;;8.23;5.95;;;29.90;80.30;;;;;;5093747;28;20226;-76
2023/05/20 13:37:18;;;;;;;8.35;5.40;;;30.20;80.80;;;;;;5069732;28;20263;-78
2023/05/20 13:40:06;;;;;;;7.82;5.28;;;30.50;78.20;;;;;;5071678;28;20281;-77
2023/05/20 13:42:53;;;;;;;9.23;5.30;;;31.00;77.50;;;;;;5057034;28;20199;-77
2023/05/20 13:45:41;;;;;;;9.13;5.60;;;31.30;76.00;;;;;;5071809;28;20194;-78
2023/05/20 13:48:29;;;;;;;8.35;5.50;;;31.80;75.70;;;;;;5072499;28;20599;-78
2023/05/20 13:51:16;;;;;;;7.13;5.20;;;31.90;73.90;;;;;;5072749;28;20205;-76
2023/05/20 13:54:05;;;;;;;8.20;5.07;;;31.80;73.60;;;;;;5071439;28;20202;-78
2023/05/20 13:56:52;;;;;;;7.13;5.20;;;32.10;73.10;;;;;;5071710;28;20214;-77
2023/05/20 13:59:40;;;;;;;7.00;5.38;;;32.30;71.60;;;;;;5071324;28;20217;-77
2023/05/20 14:02:27;;;;;;;6.97;5.18;;;32.30;72.90;;;;;;5070963;28;20200;-77
2023/05/20 14:05:15;;;;;;;8.65;4.97;;;32.30;73.10;;;;;;5057905;28;20198;-78
2023/05/20 14:08:03;;;;;;;7.93;5.10;;;32.60;73.10;;;;;;5055998;28;20198;-77
2023/05/20 14:10:54;;;;;;;6.35;4.55;;;32.50;72.60;;;;;;5070945;28;20205;-77
2023/05/20 14:13:43;;;;;;;6.60;4.82;;;32.90;72.10;;;;;;5070382;28;20218;-79
2023/05/20 14:16:31;;;;;;;7.35;5.05;;;32.90;70.90;;;;;;5071701;28;20198;-78
2023/05/20 14:19:18;;;;;;;13.23;5.25;;;32.60;71.80;;;;;;5072640;28;20297;-77
2023/05/20 14:22:06;;;;;;;6.35;5.28;;;32.60;71.50;;;;;;5071179;28;20639;-78
2023/05/20 14:24:53;;;;;;;5.88;4.63;;;32.60;70.90;;;;;;5072704;28;20212;-78
2023/05/20 14:27:40;;;;;;;11.82;4.90;;;32.90;71.50;;;;;;5070520;28;20694;-78
2023/05/20 14:30:28;;;;;;;8.77;5.10;;;33.10;70.10;;;;;;5071327;28;20292;-78
2023/05/20 14:33:15;;;;;;;5.03;4.57;;;32.80;69.80;;;;;;5071046;28;20336;-78
2023/05/20 14:36:02;;;;;;;6.13;5.07;;;32.70;70.30;;;;;;5069424;28;20561;-78